Time;durP1;ratioP1;P1;durP2;ratioP2;P2;SDS_P1;SDS_P2;PMS_P1;PMS_P2;Temp;Humidity;BMP_temperature;BMP_pressure;BME280_temperature;BME280_humidity;BME280_pressure;Samples;Min_cycle;Max_cycle;Signal;HPM_P1;HPM_P2
2021/07/23 00:00:45;;;;;;;;;;;;;;;-148.22;100.00;58358.63;5030069;28;1179;-81
2021/07/23 00:03:31;;;;;;;;;;;;;;;-148.22;100.00;58358.63;5054835;28;1349;-81
2021/07/23 00:06:09;;;;;;;;;;;;;;;-148.22;100.00;58358.63;5054752;28;1327;-81
2021/07/23 00:12:07;;;;;;;;;;;;;;;-148.22;100.00;58358.63;5014246;28;1959;-81
2021/07/23 00:14:41;;;;;;;;;;;;;;;-148.22;100.00;58358.63;4997809;28;977;-82
2021/07/23 00:17:19;;;;;;;;;;;;;;;-148.22;100.00;58358.63;5014155;28;1242;-81
2021/07/23 00:19:46;;;;;;;;;;;;;;;-148.22;100.00;58358.63;5014509;28;803;-83
2021/07/23 00:22:13;;;;;;;;;;;;;;;-148.22;100.00;58358.63;4997627;28;976;-83
2021/07/23 00:24:38;;;;;;;;;;;;;;;-148.22;100.00;58358.63;5014176;28;815;-83
2021/07/23 00:27:04;;;;;;;;;;;;;;;-148.22;100.00;58358.63;5014204;28;792;-84
2021/07/23 00:29:31;;;;;;;;;;;;;;;-148.22;100.00;58358.63;5014085;28;948;-83
2021/07/23 00:31:58;;;;;;;;;;;;;;;-148.22;100.00;58358.63;5014041;28;1957;-83
2021/07/23 00:34:55;;;;;;;;;;;;;;;-148.22;100.00;58358.63;5014100;28;928;-83
2021/07/23 00:37:21;;;;;;;;;;;;;;;-148.22;100.00;58358.63;4955565;29;928;-83
2021/07/23 00:39:55;;;;;;;;;;;;;;;-148.22;100.00;58358.63;4955673;29;1076;-84
2021/07/23 00:42:48;;;;;;;;;;;;;;;-148.22;100.00;58358.63;4955603;29;1190;-83
2021/07/23 00:45:13;;;;;;;;;;;;;;;-148.22;100.00;58358.63;4955555;29;926;-83
2021/07/23 00:50:49;;;;;;;;;;;;;;;-148.22;100.00;58358.63;4975004;28;984;-84
2021/07/23 00:53:16;;;;;;;;;;;;;;;-148.22;100.00;58358.63;4974653;28;1907;-84
2021/07/23 00:55:42;;;;;;;;;;;;;;;-148.22;100.00;58358.63;4974707;28;1053;-83
2021/07/23 00:58:09;;;;;;;;;;;;;;;-148.22;100.00;58358.63;4974864;28;835;-83
2021/07/23 01:00:39;;;;;;;;;;;;;;;-148.22;100.00;58358.63;4974853;28;959;-83
2021/07/23 01:03:15;;;;;;;;;;;;;;;-148.22;100.00;58358.63;4976811;28;1185;-83
2021/07/23 01:06:01;;;;;;;;;;;;;;;-148.22;100.00;58358.63;4978560;28;1092;-83
2021/07/23 01:08:27;;;;;;;;;;;;;;;-148.22;100.00;58358.63;4978388;28;1177;-83
2021/07/23 01:10:54;;;;;;;;;;;;;;;-148.22;100.00;58358.63;4978554;28;1262;-83
2021/07/23 01:13:33;;;;;;;;;;;;;;;-148.22;100.00;58358.63;4988024;28;1879;-84
2021/07/23 01:15:59;;;;;;;;;;;;;;;-148.22;100.00;58358.63;5017407;28;989;-83
2021/07/23 01:18:42;;;;;;;;;;;;;;;-148.22;100.00;58358.63;5017236;28;1294;-83
2021/07/23 01:21:09;;;;;;;;;;;;;;;-148.22;100.00;58358.63;5017224;28;1212;-83
2021/07/23 01:23:36;;;;;;;;;;;;;;;-148.22;100.00;58358.63;5017190;28;1202;-82
2021/07/23 01:26:11;;;;;;;;;;;;;;;-148.22;100.00;58358.63;5017238;28;1183;-83
2021/07/23 01:28:46;;;;;;;;;;;;;;;-148.22;100.00;58358.63;5091473;28;1308;-83
2021/07/23 01:31:13;;;;;;;;;;;;;;;-148.22;100.00;58358.63;5099247;28;1968;-83
2021/07/23 01:33:45;;;;;;;;;;;;;;;-148.22;100.00;58358.63;5081064;28;1216;-83
2021/07/23 01:36:28;;;;;;;;;;;;;;;-148.22;100.00;58358.63;5080962;28;1181;-84
2021/07/23 01:38:56;;;;;;;;;;;;;;;-148.22;100.00;58358.63;5080871;28;1186;-83
2021/07/23 01:41:22;;;;;;;;;;;;;;;-148.22;100.00;58358.63;5080971;28;1167;-83
2021/07/23 01:43:48;;;;;;;;;;;;;;;-148.22;100.00;58358.63;5099158;28;1040;-83
2021/07/23 01:46:26;;;;;;;;;;;;;;;-148.22;100.00;58358.63;5099062;28;834;-84
2021/07/23 01:48:51;;;;;;;;;;;;;;;-148.22;100.00;58358.63;5078518;28;1238;-83
2021/07/23 01:51:17;;;;;;;;;;;;;;;-148.22;100.00;58358.63;5080464;28;1914;-82
2021/07/23 01:53:43;;;;;;;;;;;;;;;-148.22;100.00;58358.63;5078848;28;1365;-84
2021/07/23 01:56:09;;;;;;;;;;;;;;;-148.22;100.00;58358.63;5098673;28;980;-82
2021/07/23 01:58:41;;;;;;;;;;;;;;;-148.22;100.00;58358.63;5080576;28;1211;-83
2021/07/23 02:01:08;;;;;;;;;;;;;;;-148.22;100.00;58358.63;5080294;28;1298;-82
2021/07/23 02:03:45;;;;;;;;;;;;;;;-148.22;100.00;58358.63;5080525;28;1314;-82
2021/07/23 02:06:24;;;;;;;;;;;;;;;-148.22;100.00;58358.63;5080443;28;1283;-82
2021/07/23 02:09:08;;;;;;;;;;;;;;;-148.22;100.00;58358.63;5080424;28;1320;-83
2021/07/23 02:11:33;;;;;;;;;;;;;;;-148.22;100.00;58358.63;5080202;28;1971;-82
2021/07/23 02:14:20;;;;;;;;;;;;;;;-148.22;100.00;58358.63;5078967;28;1353;-82
2021/07/23 02:16:46;;;;;;;;;;;;;;;-148.22;100.00;58358.63;5080176;28;1153;-82
2021/07/23 02:19:12;;;;;;;;;;;;;;;-148.22;100.00;58358.63;5098335;28;1020;-83
2021/07/23 02:21:40;;;;;;;;;;;;;;;-148.22;100.00;58358.63;5098197;28;798;-82
2021/07/23 02:24:34;;;;;;;;;;;;;;;-148.22;100.00;58358.63;5080143;28;1363;-82
2021/07/23 02:27:15;;;;;;;;;;;;;;;-148.22;100.00;58358.63;5056125;28;969;-82
2021/07/23 02:29:51;;;;;;;;;;;;;;;-148.22;100.00;58358.63;5055791;28;838;-82
2021/07/23 02:32:35;;;;;;;;;;;;;;;-148.22;100.00;58358.63;5038766;28;1963;-82
2021/07/23 02:35:03;;;;;;;;;;;;;;;-148.22;100.00;58358.63;5055687;28;775;-81
2021/07/23 02:37:29;;;;;;;;;;;;;;;-148.22;100.00;58358.63;5039021;28;1187;-82
2021/07/23 02:39:57;;;;;;;;;;;;;;;-148.22;100.00;58358.63;5038948;28;1320;-82
2021/07/23 02:42:38;;;;;;;;;;;;;;;-148.22;100.00;58358.63;5038786;28;1171;-82
2021/07/23 02:45:04;;;;;;;;;;;;;;;-148.22;100.00;58358.63;5038883;28;1306;-83
2021/07/23 02:47:39;;;;;;;;;;;;;;;-148.22;100.00;58358.63;5038734;28;1342;-82
2021/07/23 02:50:04;;;;;;;;;;;;;;;-148.22;100.00;58358.63;5055160;28;1223;-83
2021/07/23 02:52:41;;;;;;;;;;;;;;;-148.22;100.00;58358.63;5038615;28;1914;-83
2021/07/23 02:55:07;;;;;;;;;;;;;;;-148.22;100.00;58358.63;5038455;28;1172;-82
2021/07/23 02:57:34;;;;;;;;;;;;;;;-148.22;100.00;58358.63;5038622;28;1196;-82
2021/07/23 03:00:35;;;;;;;;;;;;;;;-148.22;100.00;58358.63;5038395;28;1217;-82
2021/07/23 03:03:05;;;;;;;;;;;;;;;-148.22;100.00;58358.63;5022215;28;1314;-82
2021/07/23 03:05:31;;;;;;;;;;;;;;;-148.22;100.00;58358.63;5038375;28;1364;-82
2021/07/23 03:07:57;;;;;;;;;;;;;;;-148.22;100.00;58358.63;5055141;28;811;-82
2021/07/23 03:10:33;;;;;;;;;;;;;;;-148.22;100.00;58358.63;5055124;28;1079;-82
2021/07/23 03:12:58;;;;;;;;;;;;;;;-148.22;100.00;58358.63;5054930;28;1890;-82
2021/07/23 03:15:35;;;;;;;;;;;;;;;-148.22;100.00;58358.63;5038081;28;1356;-82
2021/07/23 03:18:09;;;;;;;;;;;;;;;-148.22;100.00;58358.63;5038237;28;1250;-83
2021/07/23 03:21:03;;;;;;;;;;;;;;;-148.22;100.00;58358.63;5038152;28;1265;-83
2021/07/23 03:23:31;;;;;;;;;;;;;;;-148.22;100.00;58358.63;4979127;28;1254;-82
2021/07/23 03:25:57;;;;;;;;;;;;;;;-148.22;100.00;58358.63;4978902;28;1275;-82
2021/07/23 03:28:24;;;;;;;;;;;;;;;-148.22;100.00;58358.63;4979140;28;1188;-82
2021/07/23 03:30:50;;;;;;;;;;;;;;;-148.22;100.00;58358.63;4995448;28;997;-82
2021/07/23 03:33:17;;;;;;;;;;;;;;;-148.22;100.00;58358.63;4994330;28;1890;-82
2021/07/23 03:35:44;;;;;;;;;;;;;;;-148.22;100.00;58358.63;4974826;28;1188;-82
2021/07/23 03:38:10;;;;;;;;;;;;;;;-148.22;100.00;58358.63;4998359;28;1306;-82
2021/07/23 03:41:06;;;;;;;;;;;;;;;-148.22;100.00;58358.63;5014722;28;1063;-82
2021/07/23 03:43:43;;;;;;;;;;;;;;;-148.22;100.00;58358.63;4995015;28;1215;-82
2021/07/23 03:46:08;;;;;;;;;;;;;;;-148.22;100.00;58358.63;4994907;28;1283;-84
2021/07/23 03:48:38;;;;;;;;;;;;;;;-148.22;100.00;58358.63;4990988;28;1241;-82
2021/07/23 03:51:03;;;;;;;;;;;;;;;-148.22;100.00;58358.63;4995057;28;1347;-82
2021/07/23 03:53:29;;;;;;;;;;;;;;;-148.22;100.00;58358.63;4978518;28;1990;-83
2021/07/23 03:56:06;;;;;;;;;;;;;;;-148.22;100.00;58358.63;4995254;28;1446;-82
2021/07/23 03:58:33;;;;;;;;;;;;;;;-148.22;100.00;58358.63;4994713;28;1388;-83
2021/07/23 04:01:18;;;;;;;;;;;;;;;-148.22;100.00;58358.63;5032506;28;1261;-82
2021/07/23 04:03:44;;;;;;;;;;;;;;;-148.22;100.00;58358.63;5017514;28;1196;-83
2021/07/23 04:06:21;;;;;;;;;;;;;;;-148.22;100.00;58358.63;5017652;28;1176;-83
2021/07/23 04:08:59;;;;;;;;;;;;;;;-148.22;100.00;58358.63;5017576;28;1261;-83
2021/07/23 04:11:33;;;;;;;;;;;;;;;-148.22;100.00;58358.63;5034070;28;1895;-83
2021/07/23 04:14:24;;;;;;;;;;;;;;;-148.22;100.00;58358.63;5034042;28;918;-82
2021/07/23 04:17:14;;;;;;;;;;;;;;;-148.22;100.00;58358.63;5034301;28;913;-83
2021/07/23 04:19:58;;;;;;;;;;;;;;;-148.22;100.00;58358.63;5033646;28;1360;-82
2021/07/23 04:22:43;;;;;;;;;;;;;;;-148.22;100.00;58358.63;5057868;28;1258;-83
2021/07/23 04:25:09;;;;;;;;;;;;;;;-148.22;100.00;58358.63;5057824;28;1270;-83
2021/07/23 04:27:46;;;;;;;;;;;;;;;-148.22;100.00;58358.63;5057870;28;1256;-82
2021/07/23 04:30:12;;;;;;;;;;;;;;;-148.22;100.00;58358.63;5057925;28;1379;-84
2021/07/23 04:32:46;;;;;;;;;;;;;;;-148.22;100.00;58358.63;5057774;28;1890;-83
2021/07/23 04:35:18;;;;;;;;;;;;;;;-148.22;100.00;58358.63;5058089;28;1411;-83
2021/07/23 04:37:49;;;;;;;;;;;;;;;-148.22;100.00;58358.63;5057118;28;1210;-83
2021/07/23 04:40:17;;;;;;;;;;;;;;;-148.22;100.00;58358.63;5057652;28;1357;-83
2021/07/23 04:43:18;;;;;;;;;;;;;;;-148.22;100.00;58358.63;5057670;28;1141;-83
2021/07/23 04:46:03;;;;;;;;;;;;;;;-148.22;100.00;58358.63;4994353;28;1014;-82
2021/07/23 04:48:29;;;;;;;;;;;;;;;-148.22;100.00;58358.63;4977875;28;1267;-82
2021/07/23 04:50:54;;;;;;;;;;;;;;;-148.22;100.00;58358.63;4977700;28;1267;-82
2021/07/23 04:53:19;;;;;;;;;;;;;;;-148.22;100.00;58358.63;4977775;28;1973;-82
2021/07/23 04:56:05;;;;;;;;;;;;;;;-148.22;100.00;58358.63;4994214;28;985;-83
2021/07/23 04:58:42;;;;;;;;;;;;;;;-148.22;100.00;58358.63;4994288;28;808;-81
2021/07/23 05:01:39;;;;;;;;;;;;;;;-148.22;100.00;58358.63;4977923;28;1409;-83
2021/07/23 05:04:14;;;;;;;;;;;;;;;-148.22;100.00;58358.63;4977627;28;1165;-83
2021/07/23 05:07:07;;;;;;;;;;;;;;;-148.22;100.00;58358.63;4978516;28;1320;-82
2021/07/23 05:10:09;;;;;;;;;;;;;;;-148.22;100.00;58358.63;4996906;28;1213;-82
2021/07/23 05:12:55;;;;;;;;;;;;;;;-148.22;100.00;58358.63;5013685;28;1895;-82
2021/07/23 05:18:23;;;;;;;;;;;;;;;-148.22;100.00;58358.63;5013886;28;590;-82
2021/07/23 05:20:51;;;;;;;;;;;;;;;-148.22;100.00;58358.63;5072289;28;1006;-82
2021/07/23 05:26:21;;;;;;;;;;;;;;;-148.22;100.00;58358.63;5076974;28;1445;-82
2021/07/23 05:28:57;;;;;;;;;;;;;;;-148.22;100.00;58358.63;5077364;28;1333;-83
2021/07/23 05:31:24;;;;;;;;;;;;;;;-148.22;100.00;58358.63;5058321;28;1945;-82
2021/07/23 05:34:17;;;;;;;;;;;;;;;-148.22;100.00;58358.63;5077188;28;1344;-83
2021/07/23 05:36:51;;;;;;;;;;;;;;;-148.22;100.00;58358.63;5095084;28;854;-82
2021/07/23 05:39:36;;;;;;;;;;;;;;;-148.22;100.00;58358.63;5076942;28;1324;-85
2021/07/23 05:42:09;;;;;;;;;;;;;;;-148.22;100.00;58358.63;5077208;28;1299;-83
2021/07/23 05:44:34;;;;;;;;;;;;;;;-148.22;100.00;58358.63;5095212;28;968;-83
2021/07/23 05:50:02;;;;;;;;;;;;;;;-148.22;100.00;58358.63;5075861;28;1054;-90
2021/07/23 05:52:27;;;;;;;;;;;;;;;-148.22;100.00;58358.63;5060688;28;1906;-89
2021/07/23 05:55:25;;;;;;;;;;;;;;;-148.22;100.00;58358.63;5065113;28;1291;-88
2021/07/23 05:58:01;;;;;;;;;;;;;;;-148.22;100.00;58358.63;5000249;28;1200;-88
2021/07/23 06:00:27;;;;;;;;;;;;;;;-148.22;100.00;58358.63;5016436;28;1288;-88
2021/07/23 06:03:12;;;;;;;;;;;;;;;-148.22;100.00;58358.63;5035046;28;1191;-88
2021/07/23 06:05:52;;;;;;;;;;;;;;;-148.22;100.00;58358.63;5034384;28;1000;-87
2021/07/23 06:08:26;;;;;;;;;;;;;;;-148.22;100.00;58358.63;5019935;28;1354;-87
2021/07/23 06:11:07;;;;;;;;;;;;;;;-148.22;100.00;58358.63;5035941;28;1334;-88
2021/07/23 06:13:51;;;;;;;;;;;;;;;-148.22;100.00;58358.63;5015935;28;1953;-88
2021/07/23 06:16:26;;;;;;;;;;;;;;;-148.22;100.00;58358.63;4999946;28;1226;-87
2021/07/23 06:18:54;;;;;;;;;;;;;;;-148.22;100.00;58358.63;5016525;28;1032;-88
2021/07/23 06:21:35;;;;;;;;;;;;;;;-148.22;100.00;58358.63;5016248;28;1082;-88
2021/07/23 06:24:31;;;;;;;;;;;;;;;-148.22;100.00;58358.63;5016155;28;1180;-89
2021/07/23 06:27:11;;;;;;;;;;;;;;;-148.22;100.00;58358.63;5034631;28;1001;-88
2021/07/23 06:29:53;;;;;;;;;;;;;;;-148.22;100.00;58358.63;5002394;28;1297;-91
2021/07/23 06:32:45;;;;;;;;;;;;;;;-148.22;100.00;58358.63;5001740;28;1939;-89
2021/07/23 06:35:20;;;;;;;;;;;;;;;-148.22;100.00;58358.63;5078067;28;897;-88
2021/07/23 06:37:56;;;;;;;;;;;;;;;-148.22;100.00;58358.63;5060013;28;1227;-87
2021/07/23 06:40:30;;;;;;;;;;;;;;;-148.22;100.00;58358.63;5059854;28;1301;-87
2021/07/23 06:42:56;;;;;;;;;;;;;;;-148.22;100.00;58358.63;5059780;28;1291;-87
2021/07/23 06:45:50;;;;;;;;;;;;;;;-148.22;100.00;58358.63;5086883;28;1067;-87
2021/07/23 06:48:15;;;;;;;;;;;;;;;-148.22;100.00;58358.63;5077386;28;1254;-86
2021/07/23 06:50:40;;;;;;;;;;;;;;;-148.22;100.00;58358.63;5057098;28;1353;-87
2021/07/23 06:53:32;;;;;;;;;;;;;;;-148.22;100.00;58358.63;5069753;28;1910;-87
2021/07/23 06:59:38;;;;;;;;;;;;;;;-148.22;100.00;58358.63;5077378;28;628;-88
2021/07/23 07:02:06;;;;;;;;;;;;;;;-148.22;100.00;58358.63;5075151;28;1158;-88
2021/07/23 07:04:44;;;;;;;;;;;;;;;-148.22;100.00;58358.63;5092378;28;1309;-87
2021/07/23 07:10:27;;;;;;;;;;;;;;;-148.22;100.00;58358.63;5077213;28;633;-87
2021/07/23 07:12:59;;;;;;;;;;;;;;;-148.22;100.00;58358.63;5092795;28;1901;-84
2021/07/23 07:15:43;;;;;;;;;;;;;;;-148.22;100.00;58358.63;5092624;28;1154;-86
2021/07/23 07:18:10;;;;;;;;;;;;;;;-148.22;100.00;58358.63;5092747;28;1164;-87
2021/07/23 07:20:36;;;;;;;;;;;;;;;-148.22;100.00;58358.63;5093106;28;1104;-90
2021/07/23 07:23:20;;;;;;;;;;;;;;;-148.22;100.00;58358.63;5092755;28;1251;-87
2021/07/23 07:26:24;;;;;;;;;;;;;;;-148.22;100.00;58358.63;5092807;28;1321;-89
2021/07/23 07:31:54;;;;;;;;;;;;;;;-148.22;100.00;58358.63;5076709;28;1918;-90
2021/07/23 07:37:36;;;;;;;;;;;;;;;-148.22;100.00;58358.63;5054836;28;979;-88
2021/07/23 07:40:11;;;;;;;;;;;;;;;-148.22;100.00;58358.63;5054773;28;1069;-88
2021/07/23 07:42:57;;;;;;;;;;;;;;;-148.22;100.00;58358.63;5037922;28;1375;-89
2021/07/23 07:51:40;;;;;;;;;;;;;;;-148.22;100.00;58358.63;5000435;28;1894;-88
2021/07/23 07:54:05;;;;;;;;;;;;;;;-148.22;100.00;58358.63;4998163;28;1243;-89
2021/07/23 07:56:43;;;;;;;;;;;;;;;-148.22;100.00;58358.63;4998203;28;1291;-88
2021/07/23 07:59:17;;;;;;;;;;;;;;;-148.22;100.00;58358.63;4998042;28;1320;-89
2021/07/23 08:01:45;;;;;;;;;;;;;;;-148.22;100.00;58358.63;4997924;28;1327;-80
2021/07/23 08:04:12;;;;;;;;;;;;;;;-148.22;100.00;58358.63;5014421;28;1027;-80
2021/07/23 08:06:41;;;;;;;;;;;;;;;-148.22;100.00;58358.63;4997842;28;1314;-80
2021/07/23 08:09:08;;;;;;;;;;;;;;;-148.22;100.00;58358.63;5000331;28;2188;-79
2021/07/23 08:11:35;;;;;;;;;;;;;;;-148.22;100.00;58358.63;4993665;28;1907;-80
2021/07/23 08:14:02;;;;;;;;;;;;;;;-148.22;100.00;58358.63;5010825;28;1307;-80
2021/07/23 08:16:29;;;;;;;;;;;;;;;-148.22;100.00;58358.63;5014049;28;980;-80
2021/07/23 08:18:59;;;;;;;;;;;;;;;-148.22;100.00;58358.63;5014093;28;1466;-80
2021/07/23 08:21:25;;;;;;;;;;;;;;;-148.22;100.00;58358.63;5014025;28;1243;-79
2021/07/23 08:23:50;;;;;;;;;;;;;;;-148.22;100.00;58358.63;5013986;28;1017;-80
2021/07/23 08:26:17;;;;;;;;;;;;;;;-148.22;100.00;58358.63;4997569;28;1343;-80
2021/07/23 08:28:55;;;;;;;;;;;;;;;-148.22;100.00;58358.63;5061276;28;1326;-80
2021/07/23 08:31:22;;;;;;;;;;;;;;;-148.22;100.00;58358.63;5075562;28;1881;-80
2021/07/23 08:33:50;;;;;;;;;;;;;;;-148.22;100.00;58358.63;5074213;28;1182;-81
2021/07/23 08:36:25;;;;;;;;;;;;;;;-148.22;100.00;58358.63;5075521;28;770;-79
2021/07/23 08:38:51;;;;;;;;;;;;;;;-148.22;100.00;58358.63;5074382;28;1218;-79
2021/07/23 08:41:25;;;;;;;;;;;;;;;-148.22;100.00;58358.63;5074250;28;1323;-80
2021/07/23 08:43:51;;;;;;;;;;;;;;;-148.22;100.00;58358.63;5075725;28;833;-80
2021/07/23 08:46:28;;;;;;;;;;;;;;;-148.22;100.00;58358.63;5074198;28;1373;-79
2021/07/23 08:48:57;;;;;;;;;;;;;;;-148.22;100.00;58358.63;5074108;28;1197;-79
2021/07/23 08:51:22;;;;;;;;;;;;;;;-148.22;100.00;58358.63;5093778;28;1971;-80
2021/07/23 08:53:47;;;;;;;;;;;;;;;-148.22;100.00;58358.63;5095601;28;825;-81
2021/07/23 08:56:12;;;;;;;;;;;;;;;-148.22;100.00;58358.63;5077320;28;812;-80
2021/07/23 08:58:48;;;;;;;;;;;;;;;-148.22;100.00;58358.63;5077570;28;1328;-80
2021/07/23 09:01:14;;;;;;;;;;;;;;;-148.22;100.00;58358.63;5077437;28;1201;-80
2021/07/23 09:03:48;;;;;;;;;;;;;;;-148.22;100.00;58358.63;5077491;28;1178;-80
2021/07/23 09:06:22;;;;;;;;;;;;;;;-148.22;100.00;58358.63;5070516;28;1206;-79
2021/07/23 09:09:04;;;;;;;;;;;;;;;-148.22;100.00;58358.63;5058130;28;1288;-78
2021/07/23 09:11:33;;;;;;;;;;;;;;;-148.22;100.00;58358.63;5077149;28;1984;-79
2021/07/23 09:17:01;;;;;;;;;;;;;;;-148.22;100.00;58358.63;5095366;28;677;-79
2021/07/23 09:19:40;;;;;;;;;;;;;;;-148.22;100.00;58358.63;5095200;28;944;-79
2021/07/23 09:22:05;;;;;;;;;;;;;;;-148.22;100.00;58358.63;5077186;28;1286;-79
2021/07/23 09:24:51;;;;;;;;;;;;;;;-148.22;100.00;58358.63;5080057;28;1258;-80
2021/07/23 09:27:37;;;;;;;;;;;;;;;-148.22;100.00;58358.63;5095318;28;968;-79
2021/07/23 09:30:06;;;;;;;;;;;;;;;-148.22;100.00;58358.63;5096907;28;1222;-79
2021/07/23 09:32:34;;;;;;;;;;;;;;;-148.22;100.00;58358.63;5080872;28;1963;-79
2021/07/23 09:35:12;;;;;;;;;;;;;;;-148.22;100.00;58358.63;5080854;28;1097;-79
2021/07/23 09:38:10;;;;;;;;;;;;;;;-148.22;100.00;58358.63;5080726;28;1213;-79
2021/07/23 09:40:46;;;;;;;;;;;;;;;-148.22;100.00;58358.63;5098910;28;869;-79
2021/07/23 09:43:30;;;;;;;;;;;;;;;-148.22;100.00;58358.63;5080744;28;1436;-79
2021/07/23 09:46:15;;;;;;;;;;;;;;;-148.22;100.00;58358.63;5080467;28;1379;-80
2021/07/23 09:48:41;;;;;;;;;;;;;;;-148.22;100.00;58358.63;5098515;28;1111;-79
2021/07/23 09:51:07;;;;;;;;;;;;;;;-148.22;100.00;58358.63;5080400;28;1227;-79
2021/07/23 09:53:38;;;;;;;;;;;;;;;-148.22;100.00;58358.63;5080438;28;1981;-79
2021/07/23 09:56:33;;;;;;;;;;;;;;;-148.22;100.00;58358.63;5080680;28;1441;-80
2021/07/23 09:59:00;;;;;;;;;;;;;;;-148.22;100.00;58358.63;5056152;28;903;-80
2021/07/23 10:01:28;;;;;;;;;;;;;;;-148.22;100.00;58358.63;5038044;28;1347;-79
2021/07/23 10:03:58;;;;;;;;;;;;;;;-148.22;100.00;58358.63;5056047;28;1184;-80
2021/07/23 10:06:34;;;;;;;;;;;;;;;-148.22;100.00;58358.63;5027972;28;1221;-80
2021/07/23 10:09:23;;;;;;;;;;;;;;;-148.22;100.00;58358.63;5019562;28;1287;-80
2021/07/23 10:11:50;;;;;;;;;;;;;;;-148.22;100.00;58358.63;5035927;28;1890;-80
2021/07/23 10:14:51;;;;;;;;;;;;;;;-148.22;100.00;58358.63;5019388;28;1151;-79
2021/07/23 10:17:19;;;;;;;;;;;;;;;-148.22;100.00;58358.63;4980175;28;1309;-80
2021/07/23 10:19:47;;;;;;;;;;;;;;;-148.22;100.00;58358.63;4996459;28;920;-79
2021/07/23 10:22:14;;;;;;;;;;;;;;;-148.22;100.00;58358.63;4980162;28;1174;-80
2021/07/23 10:24:41;;;;;;;;;;;;;;;-148.22;100.00;58358.63;4996521;28;1017;-79
2021/07/23 10:27:10;;;;;;;;;;;;;;;-148.22;100.00;58358.63;4997500;28;1529;-80
2021/07/23 10:30:02;;;;;;;;;;;;;;;-148.22;100.00;58358.63;5015965;28;969;-80
2021/07/23 10:32:52;;;;;;;;;;;;;;;-148.22;100.00;58358.63;4938389;29;1886;-79
2021/07/23 10:35:29;;;;;;;;;;;;;;;-148.22;100.00;58358.63;4930304;29;1237;-79
2021/07/23 10:38:19;;;;;;;;;;;;;;;-148.22;100.00;58358.63;4943705;28;1177;-80
2021/07/23 10:40:46;;;;;;;;;;;;;;;-148.22;100.00;58358.63;4959139;28;1282;-80
2021/07/23 10:43:43;;;;;;;;;;;;;;;-148.22;100.00;58358.63;4960416;28;1272;-80
2021/07/23 10:46:21;;;;;;;;;;;;;;;-148.22;100.00;58358.63;4976547;28;1182;-80
2021/07/23 10:48:58;;;;;;;;;;;;;;;-148.22;100.00;58358.63;4976616;28;1212;-81
2021/07/23 10:51:42;;;;;;;;;;;;;;;-148.22;100.00;58358.63;4982064;28;1915;-80
2021/07/23 10:54:09;;;;;;;;;;;;;;;-148.22;100.00;58358.63;4999304;28;1184;-81
2021/07/23 10:59:44;;;;;;;;;;;;;;;-148.22;100.00;58358.63;5013989;28;1761;-81
2021/07/23 11:02:14;;;;;;;;;;;;;;;-148.22;100.00;58358.63;4957238;29;1086;-81
2021/07/23 11:04:41;;;;;;;;;;;;;;;-148.22;100.00;58358.63;4941019;29;1268;-82
2021/07/23 11:07:08;;;;;;;;;;;;;;;-148.22;100.00;58358.63;4957060;29;913;-80
2021/07/23 11:10:03;;;;;;;;;;;;;;;-148.22;100.00;58358.63;4976176;28;1503;-81
2021/07/23 11:12:33;;;;;;;;;;;;;;;-148.22;100.00;58358.63;5010828;28;1902;-81
2021/07/23 11:15:08;;;;;;;;;;;;;;;-148.22;100.00;58358.63;4997895;28;1212;-81
2021/07/23 11:17:45;;;;;;;;;;;;;;;-148.22;100.00;58358.63;4998684;28;1236;-81
2021/07/23 11:20:12;;;;;;;;;;;;;;;-148.22;100.00;58358.63;4987206;28;1153;-81
2021/07/23 11:22:41;;;;;;;;;;;;;;;-148.22;100.00;58358.63;4996080;28;994;-80
2021/07/23 11:25:07;;;;;;;;;;;;;;;-148.22;100.00;58358.63;4999324;28;1349;-80
2021/07/23 11:27:34;;;;;;;;;;;;;;;-148.22;100.00;58358.63;4989350;28;1364;-82
2021/07/23 11:30:21;;;;;;;;;;;;;;;-148.22;100.00;58358.63;4992181;28;1211;-81
2021/07/23 11:32:58;;;;;;;;;;;;;;;-148.22;100.00;58358.63;4995238;28;1895;-81
2021/07/23 11:35:25;;;;;;;;;;;;;;;-148.22;100.00;58358.63;4978805;28;1259;-81
2021/07/23 11:37:53;;;;;;;;;;;;;;;-148.22;100.00;58358.63;4979066;28;1157;-81
2021/07/23 11:40:32;;;;;;;;;;;;;;;-148.22;100.00;58358.63;5071519;28;969;-82
2021/07/23 11:42:59;;;;;;;;;;;;;;;-148.22;100.00;58358.63;5076661;28;985;-83
2021/07/23 11:45:32;;;;;;;;;;;;;;;-148.22;100.00;58358.63;5099440;23;1557;-79
2021/07/23 11:47:57;;;;;;;;;;;;;;;-148.22;100.00;58358.63;5096237;28;766;-80
2021/07/23 11:50:25;;;;;;;;;;;;;;;-148.22;100.00;58358.63;5078115;28;1318;-80
2021/07/23 11:53:03;;;;;;;;;;;;;;;-148.22;100.00;58358.63;5078320;28;1922;-80
2021/07/23 11:55:58;;;;;;;;;;;;;;;-148.22;100.00;58358.63;5077366;28;1068;-80
2021/07/23 11:58:27;;;;;;;;;;;;;;;-148.22;100.00;58358.63;5069516;28;1327;-81
2021/07/23 12:00:53;;;;;;;;;;;;;;;-148.22;100.00;58358.63;5058334;28;1359;-80
2021/07/23 12:03:29;;;;;;;;;;;;;;;-148.22;100.00;58358.63;5058077;28;1217;-80
2021/07/23 12:06:15;;;;;;;;;;;;;;;-148.22;100.00;58358.63;5058077;28;1195;-80
2021/07/23 12:08:53;;;;;;;;;;;;;;;-148.22;100.00;58358.63;5074548;28;1334;-81
2021/07/23 12:11:44;;;;;;;;;;;;;;;-148.22;100.00;58358.63;5089623;28;918;-80
2021/07/23 12:14:11;;;;;;;;;;;;;;;-148.22;100.00;58358.63;4978147;28;1212;-81
2021/07/23 12:16:38;;;;;;;;;;;;;;;-148.22;100.00;58358.63;4994405;28;1289;-81
2021/07/23 12:19:30;;;;;;;;;;;;;;;-148.22;100.00;58358.63;4978061;28;1170;-81
2021/07/23 12:22:07;;;;;;;;;;;;;;;-148.22;100.00;58358.63;4952606;28;1497;-81
2021/07/23 12:24:34;;;;;;;;;;;;;;;-148.22;100.00;58358.63;4974148;28;1128;-81
2021/07/23 12:27:12;;;;;;;;;;;;;;;-148.22;100.00;58358.63;4973409;28;951;-80
2021/07/23 12:29:39;;;;;;;;;;;;;;;-148.22;100.00;58358.63;4975135;28;1010;-81
2021/07/23 12:32:14;;;;;;;;;;;;;;;-148.22;100.00;58358.63;4956553;28;1953;-81
2021/07/23 12:34:40;;;;;;;;;;;;;;;-148.22;100.00;58358.63;4958679;28;1226;-81
2021/07/23 12:37:22;;;;;;;;;;;;;;;-148.22;100.00;58358.63;4974930;28;959;-81
2021/07/23 12:39:49;;;;;;;;;;;;;;;-148.22;100.00;58358.63;4958827;28;1293;-81
2021/07/23 12:42:17;;;;;;;;;;;;;;;-148.22;100.00;58358.63;4974681;28;1544;-81
2021/07/23 12:44:42;;;;;;;;;;;;;;;-148.22;100.00;58358.63;4973663;28;1091;-81
2021/07/23 12:47:18;;;;;;;;;;;;;;;-148.22;100.00;58358.63;4958653;28;1297;-81
2021/07/23 12:49:43;;;;;;;;;;;;;;;-148.22;100.00;58358.63;4958649;28;1285;-81
2021/07/23 12:52:08;;;;;;;;;;;;;;;-148.22;100.00;58358.63;5020260;28;1967;-82
2021/07/23 12:54:38;;;;;;;;;;;;;;;-148.22;100.00;58358.63;5053602;28;744;-81
2021/07/23 12:57:24;;;;;;;;;;;;;;;-148.22;100.00;58358.63;5053222;28;1151;-81
2021/07/23 13:00:16;;;;;;;;;;;;;;;-148.22;100.00;58358.63;5059890;28;1315;-81
2021/07/23 13:02:43;;;;;;;;;;;;;;;-148.22;100.00;58358.63;5078249;28;1340;-81
2021/07/23 13:05:09;;;;;;;;;;;;;;;-148.22;100.00;58358.63;5079673;28;1371;-81
2021/07/23 13:07:45;;;;;;;;;;;;;;;-148.22;100.00;58358.63;5081522;28;1142;-80
2021/07/23 13:10:15;;;;;;;;;;;;;;;-148.22;100.00;58358.63;5081218;28;1180;-81
2021/07/23 13:12:45;;;;;;;;;;;;;;;-148.22;100.00;58358.63;5081254;28;1953;-81
2021/07/23 13:15:10;;;;;;;;;;;;;;;-148.22;100.00;58358.63;5072362;28;1187;-81
2021/07/23 13:17:47;;;;;;;;;;;;;;;-148.22;100.00;58358.63;5061262;28;1208;-81
2021/07/23 13:20:13;;;;;;;;;;;;;;;-148.22;100.00;58358.63;5080191;28;1343;-81
2021/07/23 13:22:40;;;;;;;;;;;;;;;-148.22;100.00;58358.63;5099201;28;1005;-82
2021/07/23 13:25:06;;;;;;;;;;;;;;;-148.22;100.00;58358.63;5081286;28;1162;-81
2021/07/23 13:28:03;;;;;;;;;;;;;;;-148.22;100.00;58358.63;5081097;28;1260;-81
2021/07/23 13:30:40;;;;;;;;;;;;;;;-148.22;100.00;58358.63;5040253;28;1209;-81
2021/07/23 13:33:05;;;;;;;;;;;;;;;-148.22;100.00;58358.63;5040112;28;1951;-81
2021/07/23 13:35:33;;;;;;;;;;;;;;;-148.22;100.00;58358.63;5056929;28;950;-82
2021/07/23 13:38:02;;;;;;;;;;;;;;;-148.22;100.00;58358.63;5056816;28;1187;-81
2021/07/23 13:40:28;;;;;;;;;;;;;;;-148.22;100.00;58358.63;5038021;28;1167;-81
2021/07/23 13:42:55;;;;;;;;;;;;;;;-148.22;100.00;58358.63;5056173;28;1036;-80